createdAt,value
2018-03-27T08:58:44.572Z,8.51
2018-03-27T08:59:23.719Z,8.79
2018-03-27T09:00:23.771Z,8.73
2018-03-27T09:01:23.177Z,8.66
2018-03-27T09:02:23.166Z,8.10
2018-03-27T09:37:20.643Z,12.24
2018-03-27T11:21:01.795Z,10.51
2018-03-27T11:21:47.679Z,10.96
2018-03-27T11:22:47.707Z,11.17
2018-03-27T11:23:47.704Z,11.44
2018-03-27T11:24:47.705Z,11.47
2018-03-27T11:44:36.583Z,13.55
2018-03-27T11:45:11.100Z,13.96
2018-03-27T11:46:25.632Z,13.98
2018-03-27T11:47:11.090Z,13.94
2018-03-27T11:48:11.097Z,14.09
2018-03-27T11:49:11.143Z,14.02
2018-03-27T11:50:11.120Z,14.13
2018-03-27T12:53:33.409Z,9.16
2018-03-27T12:54:11.319Z,9.43
2018-03-27T12:55:11.331Z,9.75
2018-03-27T12:56:11.339Z,9.75
2018-03-27T12:57:13.297Z,10.55
2018-03-27T12:58:11.355Z,10.86
2018-03-27T12:59:11.350Z,11.89
2018-03-27T13:00:11.370Z,12.39
2018-03-27T13:03:12.152Z,10.51
2018-03-27T13:03:43.134Z,10.19
2018-03-27T13:04:43.172Z,9.45
2018-03-27T13:05:43.156Z,9.42
2018-03-27T13:06:52.725Z,10.21
2018-03-27T13:07:43.173Z,11.03
2018-03-27T13:08:43.174Z,11.50
2018-03-27T13:09:43.186Z,11.72
2018-03-27T13:10:43.201Z,11.86
2018-03-27T13:11:54.193Z,11.32
2018-03-27T13:12:43.234Z,10.80
2018-03-27T13:13:43.234Z,10.39
2018-03-27T13:14:43.249Z,9.64
2018-03-27T13:15:43.232Z,8.96
2018-03-27T13:16:43.233Z,8.63
2018-03-27T13:18:22.694Z,8.71
2018-03-27T13:18:43.981Z,9.50
2018-03-27T13:19:55.627Z,9.96
2018-03-27T13:20:43.271Z,10.06
2018-03-27T13:22:05.509Z,10.77
2018-03-27T13:22:43.318Z,10.98
2018-03-27T13:23:43.315Z,11.20
2018-03-27T13:24:43.300Z,11.59
2018-03-27T13:25:43.317Z,11.85
2018-03-27T13:26:46.738Z,11.77
2018-03-27T13:27:43.341Z,11.47
2018-03-27T13:28:43.368Z,10.71
2018-03-27T13:29:43.339Z,9.64
2018-03-27T13:30:43.357Z,9.75
2018-03-27T13:59:40.393Z,11.80
2018-03-27T14:00:17.344Z,12.11
2018-03-27T14:02:50.608Z,13.49
2018-03-27T14:03:49.049Z,13.84
2018-03-27T14:04:49.026Z,13.99
2018-03-27T14:05:49.007Z,14.10
2018-03-27T14:11:56.757Z,14.81
2018-03-27T14:12:25.327Z,14.21
2018-03-27T14:13:24.468Z,14.29
2018-03-27T14:14:24.475Z,13.59
2018-03-27T14:15:24.476Z,12.54
2018-03-27T14:19:29.067Z,11.28
2018-03-27T14:20:27.999Z,11.24
2018-03-27T14:24:40.044Z,11.83
2018-03-27T14:25:31.512Z,12.06
2018-03-27T14:27:11.025Z,12.12
2018-03-27T14:27:31.521Z,11.54
2018-03-27T14:28:32.205Z,11.97
2018-03-27T14:29:31.557Z,12.42
2018-03-27T14:30:31.562Z,12.66
2018-03-27T14:49:05.641Z,12.78
2018-03-27T14:49:44.442Z,12.92
2018-03-27T14:50:46.613Z,13.03
2018-03-27T14:51:44.467Z,12.74
2018-03-27T14:52:44.475Z,12.87
2018-03-27T14:53:44.482Z,13.24
2018-03-27T14:54:44.500Z,13.18
2018-03-27T15:01:56.552Z,13.55
2018-03-27T15:02:52.006Z,13.77
2018-03-27T15:03:52.014Z,13.73
2018-03-27T15:04:52.039Z,13.99
2018-03-27T15:06:00.026Z,14.16
2018-03-27T15:06:52.046Z,14.19
2018-03-27T15:07:52.052Z,13.92
2018-03-27T15:08:52.062Z,13.88
2018-03-27T15:09:52.070Z,14.12
2018-03-27T15:29:14.977Z,12.13
2018-03-27T15:29:36.811Z,12.09
2018-03-27T15:30:36.807Z,12.26
2018-03-27T15:31:36.817Z,12.34
2018-03-27T15:32:36.810Z,12.26
2018-03-27T15:33:36.820Z,12.23
2018-03-27T16:17:49.556Z,8.11
2018-03-27T16:18:27.948Z,8.12
2018-03-27T16:19:27.915Z,8.04
2018-03-27T16:21:59.652Z,8.11
2018-03-27T16:22:59.727Z,8.03
2018-03-27T16:23:59.613Z,7.96
2018-03-27T16:24:59.595Z,8.00
2018-03-27T16:27:50.918Z,7.93
2018-03-27T16:28:33.133Z,7.96
2018-03-27T16:29:31.424Z,8.07
2018-03-27T16:33:44.392Z,8.15
2018-03-27T16:34:35.221Z,8.22
2018-03-27T16:38:40.689Z,7.97
2018-03-27T16:39:39.655Z,7.94
2018-03-27T16:42:39.424Z,7.89
2018-03-27T16:43:11.447Z,7.81
2018-03-27T16:44:11.439Z,7.87
2018-03-27T16:45:11.413Z,7.85
2018-03-27T16:49:46.904Z,7.63
2018-03-27T16:50:14.840Z,7.72
2018-03-27T16:54:20.756Z,7.60
2018-03-27T16:55:39.167Z,7.62
2018-03-27T16:56:18.190Z,7.59
2018-03-27T16:57:28.014Z,7.56
2018-03-27T16:58:18.173Z,7.52
2018-03-27T16:59:18.209Z,7.50
2018-03-27T17:00:18.167Z,7.47
2018-03-27T17:01:18.811Z,7.32
2018-03-27T17:02:18.169Z,7.47
2018-03-27T17:03:18.168Z,7.40
2018-03-27T17:04:18.177Z,7.35
2018-03-27T17:05:18.167Z,7.42
2018-03-27T17:07:59.387Z,7.42
2018-03-27T17:08:49.865Z,7.35
2018-03-27T17:09:49.860Z,7.32
2018-03-27T17:16:57.344Z,7.32
2018-03-27T17:17:57.303Z,7.27
2018-03-27T17:18:57.296Z,7.29
2018-03-27T17:19:57.306Z,7.31
2018-03-27T17:22:29.087Z,7.16
2018-03-27T17:23:29.947Z,7.23
2018-03-27T17:24:29.023Z,7.20
2018-03-27T17:25:29.182Z,7.23
2018-03-27T17:40:54.773Z,6.95
2018-03-27T17:41:19.678Z,6.90
2018-03-27T17:42:19.677Z,6.83
2018-03-27T17:43:19.675Z,6.89
2018-03-27T17:44:19.688Z,6.87
2018-03-27T17:45:19.675Z,6.77
2018-03-27T17:46:37.802Z,6.79
2018-03-27T17:47:19.719Z,6.80
2018-03-27T17:48:19.677Z,6.76
2018-03-27T17:49:19.893Z,6.80
2018-03-27T17:50:19.738Z,6.66
2018-03-27T17:52:57.451Z,6.72
2018-03-27T17:53:54.389Z,6.69
2018-03-27T17:54:54.467Z,6.72
2018-03-27T17:55:54.349Z,6.72
2018-03-27T19:18:13.254Z,6.46
2018-03-27T19:19:12.724Z,6.51
2018-03-27T19:20:12.669Z,6.51
2018-03-27T19:27:41.954Z,6.50
2018-03-27T19:28:40.897Z,6.53
2018-03-27T19:29:40.374Z,6.50
2018-03-27T19:30:40.282Z,6.51
2018-03-27T19:33:21.100Z,6.33
2018-03-27T19:34:12.738Z,6.43
2018-03-27T19:35:13.311Z,6.40
2018-03-27T19:36:13.253Z,6.33
2018-03-27T19:37:13.145Z,6.38
2018-03-27T19:38:12.917Z,6.35
2018-03-27T19:39:12.942Z,6.35
2018-03-27T19:40:13.505Z,6.40
2018-03-27T19:41:13.267Z,6.35
2018-03-27T19:42:27.555Z,6.32
2018-03-27T19:43:12.897Z,6.43
2018-03-27T19:44:12.776Z,6.47
2018-03-27T19:45:14.150Z,6.46
2018-03-27T19:46:13.541Z,6.51
2018-03-27T19:47:27.603Z,6.40
2018-03-27T19:48:13.090Z,6.48
2018-03-27T19:49:13.310Z,6.51
2018-03-27T19:50:13.074Z,6.41
2018-03-27T19:51:13.006Z,6.43
2018-03-27T19:57:09.392Z,6.43
2018-03-27T19:59:39.901Z,6.47
2018-03-27T20:00:38.239Z,6.50
2018-03-27T20:01:38.233Z,6.53
2018-03-27T20:05:42.723Z,6.51
2018-03-27T20:06:41.558Z,6.44
2018-03-27T20:28:17.805Z,6.54
2018-03-27T20:28:39.668Z,6.50
2018-03-27T20:29:39.685Z,6.47
2018-03-27T20:30:39.710Z,6.50
2018-03-27T20:31:39.647Z,6.54
2018-03-27T20:32:53.817Z,6.54
2018-03-27T20:33:39.635Z,6.44
2018-03-27T20:34:39.634Z,6.53
2018-03-27T20:35:39.663Z,6.50
2018-03-27T20:36:39.657Z,6.50
2018-03-27T20:39:32.385Z,6.41
2018-03-27T20:40:11.286Z,6.44
2018-03-27T20:41:11.284Z,6.46
2018-03-27T20:47:10.213Z,6.40
2018-03-27T20:47:46.232Z,6.35
2018-03-27T20:48:46.230Z,6.35
2018-03-27T20:49:46.236Z,6.50
2018-03-27T20:50:46.230Z,6.36
2018-03-27T20:51:46.228Z,6.33
2018-03-27T20:57:21.762Z,6.30
2018-03-27T20:58:21.643Z,6.36
2018-03-27T20:59:21.618Z,6.32
2018-03-27T21:00:21.640Z,6.38
2018-03-27T21:01:43.249Z,6.44
2018-03-27T21:02:21.614Z,6.40
2018-03-27T21:03:21.675Z,6.32
2018-03-27T21:04:21.600Z,6.36
2018-03-27T21:05:21.608Z,6.35
2018-03-27T21:08:05.894Z,6.30
2018-03-27T21:08:53.335Z,6.29
2018-03-27T21:09:53.327Z,6.36
2018-03-27T21:10:53.332Z,6.36
2018-03-27T21:56:36.867Z,6.30
2018-03-27T21:57:15.252Z,6.22
2018-03-27T22:46:51.773Z,5.74
2018-03-27T22:47:51.753Z,5.64
2018-03-27T22:48:51.897Z,5.63
2018-03-27T22:49:51.744Z,5.60
2018-03-27T22:50:51.737Z,5.60
2018-03-27T22:51:51.722Z,5.66
2018-03-27T22:52:51.720Z,5.56
2018-03-27T22:55:24.973Z,5.41
2018-03-27T22:56:23.353Z,5.56
2018-03-27T22:57:23.359Z,5.63
2018-03-27T23:01:33.677Z,5.52
2018-03-27T23:02:26.965Z,5.48
2018-03-27T23:08:20.045Z,5.55
2018-03-27T23:09:01.929Z,5.59
2018-03-27T23:10:01.923Z,5.63
2018-03-27T23:11:01.918Z,5.60
2018-03-27T23:12:01.918Z,5.66
2018-03-27T23:13:01.908Z,5.64
2018-03-27T23:18:39.376Z,5.64
2018-03-27T23:19:36.816Z,5.55
2018-03-27T23:20:36.828Z,5.56
2018-03-27T23:21:36.792Z,5.43
2018-03-27T23:22:36.792Z,5.55
